METAR Data
IDs: Format: Raw Decoded Include TAF

Data at: 1548 UTC 20 Nov 2018

KERV 201535Z AUTO 03009KT 10SM CLR 10/03 A3038 RMK AO2 T01030029
KERV 201515Z AUTO 34004KT 10SM CLR 08/04 A3037 RMK AO2 T00760040
KERV 201455Z AUTO 33006KT 10SM CLR 06/04 A3037 RMK AO2 T00610035
KERV 201435Z AUTO 34006KT 10SM CLR 05/03 A3036 RMK AO2 T00510030
KERV 201415Z AUTO 35004KT 10SM CLR 05/03 A3035 RMK AO2 T00450029
KERV 201355Z AUTO 36005KT 10SM CLR 03/01 A3034 RMK AO2 T00270013
KERV 201335Z AUTO 33003KT 10SM CLR 01/00 A3034 RMK AO2 T00081005
KERV 201315Z AUTO 34004KT 10SM CLR 02/00 A3033 RMK AO2 T00180003
KERV 201255Z AUTO 33003KT 10SM CLR 02/01 A3032 RMK AO2 T00220007
KERV 201235Z AUTO 34003KT 10SM CLR 02/01 A3031 RMK AO2 T00220007
KERV 201215Z AUTO 00000KT 10SM CLR 03/01 A3030 RMK AO2 T00290013
KERV 201155Z AUTO 34003KT 10SM CLR 02/01 A3029 RMK AO2 T00220007 10106 20022

KT82 201535Z AUTO 04008G14KT 10SM CLR 09/02 A3038 RMK AO2 T00920015
KT82 201515Z AUTO 06006KT 10SM CLR 09/02 A3038 RMK AO2 T00860022
KT82 201455Z AUTO 00000KT 10SM CLR 07/03 A3037 RMK AO2 T00660032
KT82 201435Z AUTO 35003KT 10SM CLR 05/03 A3036 RMK AO2 T00500032
KT82 201415Z AUTO 00000KT 10SM CLR 03/02 A3036 RMK AO2 T00330022
KT82 201355Z AUTO 00000KT 10SM CLR 02/01 A3035 RMK AO2 T00170006
KT82 201335Z AUTO 00000KT 10SM CLR 02/01 A3034 RMK AO2 T00150005
KT82 201315Z AUTO 00000KT 10SM CLR 01/00 A3033 RMK AO2 T00100001
KT82 201255Z AUTO 32003KT 10SM CLR 01/00 A3032 RMK AO2 T00070000
KT82 201235Z AUTO 29003KT 10SM CLR 01/00 A3031 RMK AO2 T00100000
KT82 201215Z AUTO 00000KT 10SM CLR 01/00 A3030 RMK AO2 T00130003
KT82 201155Z AUTO 00000KT 10SM CLR 02/01 A3030 RMK AO2 T00160008 10097 20005

KJCT 201451Z AUTO 31004KT 9SM CLR 03/02 A3039 RMK AO2 SLP282 T00330022 51021
KJCT 201351Z AUTO 00000KT 4SM BR CLR 01/00 A3037 RMK AO2 SLP278 T00060000 $
KJCT 201251Z AUTO 27003KT 8SM CLR M01/M01 A3035 RMK AO2 SLP268 T10111011 $
KJCT 201151Z AUTO 29003KT 8SM CLR M01/M01 A3032 RMK AO2 SLP258 T10061006 10028 21006 53009 $

K5C1 201535Z AUTO 05009KT 10SM CLR 10/01 A3038 RMK AO1
K5C1 201515Z AUTO 02008KT 10SM CLR 08/01 A3038 RMK AO1
K5C1 201455Z AUTO 02009KT 10SM CLR 08/02 A3037 RMK AO1
K5C1 201435Z AUTO 36007KT 10SM CLR 07/02 A3036 RMK AO1
K5C1 201415Z AUTO 01005KT 10SM CLR 06/02 A3036 RMK AO1
K5C1 201355Z AUTO 35004KT 10SM CLR 05/02 A3035 RMK AO1
K5C1 201335Z AUTO 35003KT 10SM CLR 04/02 A3034 RMK AO1
K5C1 201315Z AUTO 35003KT 10SM CLR 04/02 A3034 RMK AO1
K5C1 201255Z AUTO 35004KT 10SM CLR 04/02 A3033 RMK AO1
K5C1 201235Z AUTO 34004KT 10SM CLR 05/02 A3032 RMK AO1
K5C1 201215Z AUTO 35004KT 10SM CLR 05/02 A3031 RMK AO1
K5C1 201155Z AUTO 35004KT 10SM CLR 05/02 A3030 RMK AO1

KHDO 201451Z AUTO 03005KT 10SM CLR 12/04 A3037 RMK AO2 SLP277 T01170044 51028
KHDO 201351Z AUTO 03005KT 10SM CLR 09/04 A3034 RMK AO2 SLP269 T00890044
KHDO 201251Z AUTO 02005KT 10SM SCT038 08/04 A3031 RMK AO2 SLP258 T00830044
KHDO 201151Z AUTO 03005KT 10SM OVC038 11/06 A3028 RMK AO2 SLP248 T01060056 10139 20106 53011